sensor_id;sensor_type;location;lat;lon;timestamp;temperature;humidity
70151;DHT22;57517;43.562;19.540;2023-04-01T00:02:07;358.60;2073.60
70151;DHT22;57517;43.562;19.540;2023-04-01T00:04:33;358.60;2073.60
70151;DHT22;57517;43.562;19.540;2023-04-01T00:06:59;358.80;2022.40
70151;DHT22;57517;43.562;19.540;2023-04-01T00:09:25;358.90;2022.40
70151;DHT22;57517;43.562;19.540;2023-04-01T00:11:51;359.00;1971.20
70151;DHT22;57517;43.562;19.540;2023-04-01T00:14:17;358.70;2048.00
70151;DHT22;57517;43.562;19.540;2023-04-01T00:16:43;358.50;2124.80
70151;DHT22;57517;43.562;19.540;2023-04-01T00:19:09;358.60;2073.60
70151;DHT22;57517;43.562;19.540;2023-04-01T00:21:34;358.60;2048.00
70151;DHT22;57517;43.562;19.540;2023-04-01T00:24:01;358.40;2124.80
70151;DHT22;57517;43.562;19.540;2023-04-01T00:26:26;358.50;2048.00
70151;DHT22;57517;43.562;19.540;2023-04-01T00:28:52;358.50;2022.40
70151;DHT22;57517;43.562;19.540;2023-04-01T00:31:19;358.60;1996.80
70151;DHT22;57517;43.562;19.540;2023-04-01T00:33:45;358.70;2022.40
70151;DHT22;57517;43.562;19.540;2023-04-01T00:36:13;358.70;2048.00
70151;DHT22;57517;43.562;19.540;2023-04-01T00:38:40;358.70;1996.80
70151;DHT22;57517;43.562;19.540;2023-04-01T00:41:06;358.80;1920.00
70151;DHT22;57517;43.562;19.540;2023-04-01T00:43:33;358.90;1945.60
70151;DHT22;57517;43.562;19.540;2023-04-01T00:45:58;358.80;1996.80
70151;DHT22;57517;43.562;19.540;2023-04-01T00:48:33;358.80;2022.40
70151;DHT22;57517;43.562;19.540;2023-04-01T00:51:09;358.60;2099.20
70151;DHT22;57517;43.562;19.540;2023-04-01T00:53:41;333.70;2099.20
70151;DHT22;57517;43.562;19.540;2023-04-01T00:56:14;333.70;2227.20
70151;DHT22;57517;43.562;19.540;2023-04-01T00:58:47;333.50;2227.20
70151;DHT22;57517;43.562;19.540;2023-04-01T01:01:14;333.20;2329.60
70151;DHT22;57517;43.562;19.540;2023-04-01T01:03:40;333.20;2304.00
70151;DHT22;57517;43.562;19.540;2023-04-01T01:06:12;333.40;2329.60
70151;DHT22;57517;43.562;19.540;2023-04-01T01:11:22;333.70;2329.60
70151;DHT22;57517;43.562;19.540;2023-04-01T01:16:29;358.60;2304.00
70151;DHT22;57517;43.562;19.540;2023-04-01T01:19:07;358.60;2227.20
70151;DHT22;57517;43.562;19.540;2023-04-01T01:21:54;358.60;2252.80
70151;DHT22;57517;43.562;19.540;2023-04-01T01:27:19;333.60;2329.60
70151;DHT22;57517;43.562;19.540;2023-04-01T01:35:31;333.70;2329.60
70151;DHT22;57517;43.562;19.540;2023-04-01T01:38:05;333.70;2329.60
70151;DHT22;57517;43.562;19.540;2023-04-01T01:40:33;333.50;2329.60
70151;DHT22;57517;43.562;19.540;2023-04-01T01:43:04;333.50;2329.60
70151;DHT22;57517;43.562;19.540;2023-04-01T01:45:33;333.20;2329.60
70151;DHT22;57517;43.562;19.540;2023-04-01T01:48:00;333.10;2329.60
70151;DHT22;57517;43.562;19.540;2023-04-01T01:50:27;333.20;2329.60
70151;DHT22;57517;43.562;19.540;2023-04-01T01:53:05;333.20;2329.60
70151;DHT22;57517;43.562;19.540;2023-04-01T01:55:34;333.40;2329.60
70151;DHT22;57517;43.562;19.540;2023-04-01T01:58:25;333.30;2329.60
70151;DHT22;57517;43.562;19.540;2023-04-01T02:00:53;333.40;2329.60
70151;DHT22;57517;43.562;19.540;2023-04-01T02:03:21;333.40;2329.60
70151;DHT22;57517;43.562;19.540;2023-04-01T02:05:51;333.20;2329.60
70151;DHT22;57517;43.562;19.540;2023-04-01T02:08:40;333.40;2329.60
70151;DHT22;57517;43.562;19.540;2023-04-01T02:11:09;333.20;2329.60
70151;DHT22;57517;43.562;19.540;2023-04-01T02:16:26;333.50;2329.60
70151;DHT22;57517;43.562;19.540;2023-04-01T02:18:54;333.30;2329.60
70151;DHT22;57517;43.562;19.540;2023-04-01T02:21:22;333.20;2329.60
70151;DHT22;57517;43.562;19.540;2023-04-01T02:23:50;333.00;2329.60
70151;DHT22;57517;43.562;19.540;2023-04-01T02:26:18;333.10;2329.60
70151;DHT22;57517;43.562;19.540;2023-04-01T02:28:46;333.10;2329.60
70151;DHT22;57517;43.562;19.540;2023-04-01T02:31:14;333.10;2329.60
70151;DHT22;57517;43.562;19.540;2023-04-01T02:33:41;333.00;2329.60
70151;DHT22;57517;43.562;19.540;2023-04-01T02:36:11;332.90;2329.60
70151;DHT22;57517;43.562;19.540;2023-04-01T02:38:37;332.80;2329.60
70151;DHT22;57517;43.562;19.540;2023-04-01T02:41:04;332.90;2329.60
70151;DHT22;57517;43.562;19.540;2023-04-01T02:43:31;333.00;2329.60
70151;DHT22;57517;43.562;19.540;2023-04-01T02:45:57;333.10;2329.60
70151;DHT22;57517;43.562;19.540;2023-04-01T02:48:23;333.20;2329.60
70151;DHT22;57517;43.562;19.540;2023-04-01T02:50:49;333.20;2329.60
70151;DHT22;57517;43.562;19.540;2023-04-01T02:53:15;333.20;2329.60
70151;DHT22;57517;43.562;19.540;2023-04-01T02:55:41;333.20;2329.60
70151;DHT22;57517;43.562;19.540;2023-04-01T02:58:07;333.40;2329.60
70151;DHT22;57517;43.562;19.540;2023-04-01T03:00:32;333.30;2329.60
70151;DHT22;57517;43.562;19.540;2023-04-01T03:02:58;333.50;2329.60
70151;DHT22;57517;43.562;19.540;2023-04-01T03:05:24;333.40;2329.60
70151;DHT22;57517;43.562;19.540;2023-04-01T03:07:50;333.50;2329.60
70151;DHT22;57517;43.562;19.540;2023-04-01T03:10:15;333.20;2329.60
70151;DHT22;57517;43.562;19.540;2023-04-01T03:12:41;333.00;2329.60
70151;DHT22;57517;43.562;19.540;2023-04-01T03:15:09;332.90;2329.60
70151;DHT22;57517;43.562;19.540;2023-04-01T03:17:35;332.90;2329.60
70151;DHT22;57517;43.562;19.540;2023-04-01T03:20:01;332.80;2329.60
70151;DHT22;57517;43.562;19.540;2023-04-01T03:22:30;308.10;2304.00
70151;DHT22;57517;43.562;19.540;2023-04-01T03:24:56;332.80;2329.60
70151;DHT22;57517;43.562;19.540;2023-04-01T03:27:22;332.80;2329.60
70151;DHT22;57517;43.562;19.540;2023-04-01T03:29:48;332.80;2329.60
70151;DHT22;57517;43.562;19.540;2023-04-01T03:32:14;332.80;2329.60
70151;DHT22;57517;43.562;19.540;2023-04-01T03:34:40;332.80;2329.60
70151;DHT22;57517;43.562;19.540;2023-04-01T03:37:06;332.90;2329.60
70151;DHT22;57517;43.562;19.540;2023-04-01T03:39:32;333.00;2329.60
70151;DHT22;57517;43.562;19.540;2023-04-01T03:41:57;333.20;2329.60
70151;DHT22;57517;43.562;19.540;2023-04-01T03:44:24;333.10;2329.60
70151;DHT22;57517;43.562;19.540;2023-04-01T03:46:50;333.00;2329.60
70151;DHT22;57517;43.562;19.540;2023-04-01T03:49:16;333.00;2329.60
70151;DHT22;57517;43.562;19.540;2023-04-01T03:51:42;333.10;2329.60
70151;DHT22;57517;43.562;19.540;2023-04-01T03:54:09;333.20;2329.60
70151;DHT22;57517;43.562;19.540;2023-04-01T03:56:35;333.20;2329.60
70151;DHT22;57517;43.562;19.540;2023-04-01T03:59:06;333.00;2329.60
70151;DHT22;57517;43.562;19.540;2023-04-01T04:01:32;333.00;2329.60
70151;DHT22;57517;43.562;19.540;2023-04-01T04:03:58;333.10;2329.60
70151;DHT22;57517;43.562;19.540;2023-04-01T04:06:25;333.20;2329.60
70151;DHT22;57517;43.562;19.540;2023-04-01T04:08:51;333.10;2329.60
70151;DHT22;57517;43.562;19.540;2023-04-01T04:11:18;333.00;2329.60
70151;DHT22;57517;43.562;19.540;2023-04-01T04:13:44;333.00;2329.60
70151;DHT22;57517;43.562;19.540;2023-04-01T04:16:10;333.00;2329.60
70151;DHT22;57517;43.562;19.540;2023-04-01T04:18:36;333.00;2329.60
70151;DHT22;57517;43.562;19.540;2023-04-01T04:21:03;332.90;2329.60
70151;DHT22;57517;43.562;19.540;2023-04-01T04:23:29;332.80;2329.60
70151;DHT22;57517;43.562;19.540;2023-04-01T04:25:58;308.00;2304.00
70151;DHT22;57517;43.562;19.540;2023-04-01T04:28:25;308.10;2304.00
70151;DHT22;57517;43.562;19.540;2023-04-01T04:30:51;308.10;2304.00
70151;DHT22;57517;43.562;19.540;2023-04-01T04:33:18;308.10;2304.00
70151;DHT22;57517;43.562;19.540;2023-04-01T04:35:43;332.80;2329.60
70151;DHT22;57517;43.562;19.540;2023-04-01T04:38:09;332.80;2329.60
70151;DHT22;57517;43.562;19.540;2023-04-01T04:40:39;332.80;2329.60
70151;DHT22;57517;43.562;19.540;2023-04-01T04:43:05;332.80;2329.60
70151;DHT22;57517;43.562;19.540;2023-04-01T04:45:32;332.80;2329.60
70151;DHT22;57517;43.562;19.540;2023-04-01T04:47:58;332.90;2329.60
70151;DHT22;57517;43.562;19.540;2023-04-01T04:50:24;308.10;2304.00
70151;DHT22;57517;43.562;19.540;2023-04-01T04:52:50;307.70;2304.00
70151;DHT22;57517;43.562;19.540;2023-04-01T04:55:16;307.60;2304.00
70151;DHT22;57517;43.562;19.540;2023-04-01T04:57:42;307.60;2304.00
70151;DHT22;57517;43.562;19.540;2023-04-01T05:00:09;307.70;2304.00
70151;DHT22;57517;43.562;19.540;2023-04-01T05:02:35;307.90;2304.00
70151;DHT22;57517;43.562;19.540;2023-04-01T05:05:01;308.10;2304.00
70151;DHT22;57517;43.562;19.540;2023-04-01T05:07:27;332.90;2329.60
70151;DHT22;57517;43.562;19.540;2023-04-01T05:09:52;332.90;2329.60
70151;DHT22;57517;43.562;19.540;2023-04-01T05:12:18;332.90;2329.60
70151;DHT22;57517;43.562;19.540;2023-04-01T05:14:44;332.80;2329.60
70151;DHT22;57517;43.562;19.540;2023-04-01T05:17:13;333.00;2329.60
70151;DHT22;57517;43.562;19.540;2023-04-01T05:19:39;333.00;2329.60
70151;DHT22;57517;43.562;19.540;2023-04-01T05:22:05;333.20;2329.60
70151;DHT22;57517;43.562;19.540;2023-04-01T05:24:31;333.20;2329.60
70151;DHT22;57517;43.562;19.540;2023-04-01T05:26:58;333.40;2329.60
70151;DHT22;57517;43.562;19.540;2023-04-01T05:29:25;333.50;2329.60
70151;DHT22;57517;43.562;19.540;2023-04-01T05:31:51;333.40;2329.60
70151;DHT22;57517;43.562;19.540;2023-04-01T05:34:16;333.40;2329.60
70151;DHT22;57517;43.562;19.540;2023-04-01T05:36:42;333.30;2329.60
70151;DHT22;57517;43.562;19.540;2023-04-01T05:39:09;333.40;2329.60
70151;DHT22;57517;43.562;19.540;2023-04-01T05:41:35;333.20;2329.60
70151;DHT22;57517;43.562;19.540;2023-04-01T05:44:01;333.10;2329.60
70151;DHT22;57517;43.562;19.540;2023-04-01T05:46:27;333.10;2329.60
70151;DHT22;57517;43.562;19.540;2023-04-01T05:48:53;333.10;2329.60
70151;DHT22;57517;43.562;19.540;2023-04-01T05:51:19;333.10;2329.60
70151;DHT22;57517;43.562;19.540;2023-04-01T05:53:44;333.30;2329.60
70151;DHT22;57517;43.562;19.540;2023-04-01T05:56:10;333.50;2329.60
70151;DHT22;57517;43.562;19.540;2023-04-01T05:58:37;358.50;2329.60
70151;DHT22;57517;43.562;19.540;2023-04-01T06:01:04;358.80;2329.60
70151;DHT22;57517;43.562;19.540;2023-04-01T06:03:30;359.00;2329.60
70151;DHT22;57517;43.562;19.540;2023-04-01T06:05:56;359.00;2329.60
70151;DHT22;57517;43.562;19.540;2023-04-01T06:08:22;358.80;2329.60
70151;DHT22;57517;43.562;19.540;2023-04-01T06:13:31;359.00;2329.60
70151;DHT22;57517;43.562;19.540;2023-04-01T06:16:32;384.00;2329.60
70151;DHT22;57517;43.562;19.540;2023-04-01T06:38:02;358.50;2329.60
70151;DHT22;57517;43.562;19.540;2023-04-01T06:46:44;358.60;2329.60
70151;DHT22;57517;43.562;19.540;2023-04-01T06:52:36;537.70;1894.40
70151;DHT22;57517;43.562;19.540;2023-04-01T06:57:49;717.50;1126.40
70151;DHT22;57517;43.562;19.540;2023-04-01T07:00:29;742.60;998.40
70151;DHT22;57517;43.562;19.540;2023-04-01T07:03:31;742.90;947.20
70151;DHT22;57517;43.562;19.540;2023-04-01T07:06:06;794.00;896.00
70151;DHT22;57517;43.562;19.540;2023-04-01T07:08:38;845.00;844.80
70151;DHT22;57517;43.562;19.540;2023-04-01T07:11:09;871.30;768.00
70151;DHT22;57517;43.562;19.540;2023-04-01T07:13:45;921.60;742.40
70151;DHT22;57517;43.562;19.540;2023-04-01T07:16:33;947.30;716.80
70151;DHT22;57517;43.562;19.540;2023-04-01T07:19:08;947.60;691.20
70151;DHT22;57517;43.562;19.540;2023-04-01T07:22:00;947.20;665.60
70151;DHT22;57517;43.562;19.540;2023-04-01T07:24:34;922.50;665.60
70151;DHT22;57517;43.562;19.540;2023-04-01T07:27:00;922.50;640.00
70151;DHT22;57517;43.562;19.540;2023-04-01T07:29:26;922.00;665.60
70151;DHT22;57517;43.562;19.540;2023-04-01T07:35:46;819.50;742.40
70151;DHT22;57517;43.562;19.540;2023-04-01T07:48:58;564.10;1126.40
70151;DHT22;57517;43.562;19.540;2023-04-01T08:10:37;486.80;1305.60
70151;DHT22;57517;43.562;19.540;2023-04-01T08:18:45;435.70;1459.20
70151;DHT22;57517;43.562;19.540;2023-04-01T08:21:25;435.60;1587.20
70151;DHT22;57517;43.562;19.540;2023-04-01T08:23:56;435.60;1587.20
70151;DHT22;57517;43.562;19.540;2023-04-01T08:26:30;435.60;1561.60
70151;DHT22;57517;43.562;19.540;2023-04-01T08:29:09;435.80;1459.20
70151;DHT22;57517;43.562;19.540;2023-04-01T08:34:36;436.10;1356.80
70151;DHT22;57517;43.562;19.540;2023-04-01T08:37:17;436.00;1280.00
70151;DHT22;57517;43.562;19.540;2023-04-01T08:39:48;460.80;1356.80
70151;DHT22;57517;43.562;19.540;2023-04-01T09:19:06;717.50;742.40
70151;DHT22;57517;43.562;19.540;2023-04-01T09:21:25;768.80;691.20
70151;DHT22;57517;43.562;19.540;2023-04-01T09:37:21;691.90;768.00
70151;DHT22;57517;43.562;19.540;2023-04-01T09:40:18;691.40;768.00
70151;DHT22;57517;43.562;19.540;2023-04-01T09:43:11;666.10;768.00
70151;DHT22;57517;43.562;19.540;2023-04-01T09:51:38;589.70;870.40
70151;DHT22;57517;43.562;19.540;2023-04-01T09:56:59;563.20;972.80
70151;DHT22;57517;43.562;19.540;2023-04-01T10:05:52;410.20;1868.80
70151;DHT22;57517;43.562;19.540;2023-04-01T10:11:04;410.10;1868.80
70151;DHT22;57517;43.562;19.540;2023-04-01T10:19:52;333.10;2329.60
70151;DHT22;57517;43.562;19.540;2023-04-01T10:37:17;308.00;2304.00
70151;DHT22;57517;43.562;19.540;2023-04-01T10:40:41;308.10;2304.00
70151;DHT22;57517;43.562;19.540;2023-04-01T10:48:23;358.70;2048.00
70151;DHT22;57517;43.562;19.540;2023-04-01T10:56:58;409.70;1664.00
70151;DHT22;57517;43.562;19.540;2023-04-01T11:08:45;435.60;1459.20
70151;DHT22;57517;43.562;19.540;2023-04-01T11:31:29;384.30;1484.80
70151;DHT22;57517;43.562;19.540;2023-04-01T11:39:31;358.80;1587.20
70151;DHT22;57517;43.562;19.540;2023-04-01T11:47:53;333.60;1587.20
70151;DHT22;57517;43.562;19.540;2023-04-01T11:53:52;358.40;1561.60
70151;DHT22;57517;43.562;19.540;2023-04-01T11:56:36;333.70;1561.60
70151;DHT22;57517;43.562;19.540;2023-04-01T12:05:08;333.70;1587.20
70151;DHT22;57517;43.562;19.540;2023-04-01T12:10:45;333.40;1638.40
70151;DHT22;57517;43.562;19.540;2023-04-01T12:19:23;333.70;1612.80
70151;DHT22;57517;43.562;19.540;2023-04-01T12:25:01;358.80;1536.00
70151;DHT22;57517;43.562;19.540;2023-04-01T12:28:15;359.10;1510.40
70151;DHT22;57517;43.562;19.540;2023-04-01T12:31:28;359.20;1484.80
70151;DHT22;57517;43.562;19.540;2023-04-01T12:55:49;358.50;1689.60
70151;DHT22;57517;43.562;19.540;2023-04-01T13:06:58;358.40;1817.60
70151;DHT22;57517;43.562;19.540;2023-04-01T13:09:40;358.50;1817.60
70151;DHT22;57517;43.562;19.540;2023-04-01T13:24:00;333.70;1817.60
70151;DHT22;57517;43.562;19.540;2023-04-01T13:29:13;333.70;1740.80
70151;DHT22;57517;43.562;19.540;2023-04-01T13:35:04;333.50;1894.40
70151;DHT22;57517;43.562;19.540;2023-04-01T13:41:29;358.50;1740.80
70151;DHT22;57517;43.562;19.540;2023-04-01T13:43:39;358.70;1664.00
70151;DHT22;57517;43.562;19.540;2023-04-01T13:52:18;359.10;1561.60
70151;DHT22;57517;43.562;19.540;2023-04-01T14:03:18;384.10;1587.20
70151;DHT22;57517;43.562;19.540;2023-04-01T14:08:55;384.00;1612.80
70151;DHT22;57517;43.562;19.540;2023-04-01T14:25:21;384.40;1484.80
70151;DHT22;57517;43.562;19.540;2023-04-01T14:31:17;384.30;1510.40
70151;DHT22;57517;43.562;19.540;2023-04-01T14:33:50;384.60;1536.00
70151;DHT22;57517;43.562;19.540;2023-04-01T14:39:25;384.60;1408.00
70151;DHT22;57517;43.562;19.540;2023-04-01T14:47:54;384.60;1433.60
70151;DHT22;57517;43.562;19.540;2023-04-01T14:50:28;384.70;1459.20
70151;DHT22;57517;43.562;19.540;2023-04-01T15:09:05;359.10;1561.60
70151;DHT22;57517;43.562;19.540;2023-04-01T15:14:50;359.10;1561.60
70151;DHT22;57517;43.562;19.540;2023-04-01T15:17:39;359.30;1536.00
70151;DHT22;57517;43.562;19.540;2023-04-01T15:20:25;359.10;1536.00
70151;DHT22;57517;43.562;19.540;2023-04-01T15:28:20;359.30;1766.40
70151;DHT22;57517;43.562;19.540;2023-04-01T15:31:33;359.30;1612.80
70151;DHT22;57517;43.562;19.540;2023-04-01T15:45:17;384.60;1561.60
70151;DHT22;57517;43.562;19.540;2023-04-01T15:47:53;384.40;1561.60
70151;DHT22;57517;43.562;19.540;2023-04-01T15:53:40;384.00;1561.60
70151;DHT22;57517;43.562;19.540;2023-04-01T16:01:37;384.00;1612.80
70151;DHT22;57517;43.562;19.540;2023-04-01T16:10:19;359.30;1561.60
70151;DHT22;57517;43.562;19.540;2023-04-01T16:12:53;359.30;1561.60
70151;DHT22;57517;43.562;19.540;2023-04-01T16:20:53;384.00;1587.20
70151;DHT22;57517;43.562;19.540;2023-04-01T16:23:34;384.10;1561.60
70151;DHT22;57517;43.562;19.540;2023-04-01T16:34:25;384.50;1536.00
70151;DHT22;57517;43.562;19.540;2023-04-01T16:42:55;384.10;1664.00
70151;DHT22;57517;43.562;19.540;2023-04-01T16:45:26;359.30;1664.00
70151;DHT22;57517;43.562;19.540;2023-04-01T16:48:01;359.20;1638.40
70151;DHT22;57517;43.562;19.540;2023-04-01T16:50:39;359.20;1612.80
70151;DHT22;57517;43.562;19.540;2023-04-01T17:01:27;358.60;1894.40
70151;DHT22;57517;43.562;19.540;2023-04-01T17:04:07;358.50;1868.80
70151;DHT22;57517;43.562;19.540;2023-04-01T17:06:50;333.70;1868.80
70151;DHT22;57517;43.562;19.540;2023-04-01T17:15:10;333.40;2073.60
70151;DHT22;57517;43.562;19.540;2023-04-01T17:17:49;333.50;2022.40
70151;DHT22;57517;43.562;19.540;2023-04-01T17:20:35;333.30;2099.20
70151;DHT22;57517;43.562;19.540;2023-04-01T17:23:29;333.10;2176.00
70151;DHT22;57517;43.562;19.540;2023-04-01T17:47:55;307.40;2304.00
70151;DHT22;57517;43.562;19.540;2023-04-01T17:50:33;307.40;2278.40
70151;DHT22;57517;43.562;19.540;2023-04-01T18:25:45;307.20;2304.00
70151;DHT22;57517;43.562;19.540;2023-04-01T18:31:25;282.40;2278.40
70151;DHT22;57517;43.562;19.540;2023-04-01T18:34:47;282.30;2278.40
70151;DHT22;57517;43.562;19.540;2023-04-01T18:37:46;281.90;2278.40
70151;DHT22;57517;43.562;19.540;2023-04-01T18:43:34;256.80;2252.80
70151;DHT22;57517;43.562;19.540;2023-04-01T18:57:46;256.60;2252.80
70151;DHT22;57517;43.562;19.540;2023-04-01T19:05:42;256.90;2252.80
70151;DHT22;57517;43.562;19.540;2023-04-01T19:08:30;281.60;2278.40
70151;DHT22;57517;43.562;19.540;2023-04-01T19:16:25;256.70;2252.80
70151;DHT22;57517;43.562;19.540;2023-04-01T19:21:45;256.80;2252.80
70151;DHT22;57517;43.562;19.540;2023-04-01T19:27:29;256.90;2252.80
70151;DHT22;57517;43.562;19.540;2023-04-01T19:35:38;256.80;2252.80
70151;DHT22;57517;43.562;19.540;2023-04-01T19:38:39;256.90;2252.80
70151;DHT22;57517;43.562;19.540;2023-04-01T19:43:54;256.90;2252.80
70151;DHT22;57517;43.562;19.540;2023-04-01T19:46:27;256.70;2252.80
70151;DHT22;57517;43.562;19.540;2023-04-01T19:59:47;230.60;2252.80
70151;DHT22;57517;43.562;19.540;2023-04-01T20:02:25;230.50;2252.80
70151;DHT22;57517;43.562;19.540;2023-04-01T20:04:55;230.70;2252.80
70151;DHT22;57517;43.562;19.540;2023-04-01T20:07:33;230.60;2252.80
70151;DHT22;57517;43.562;19.540;2023-04-01T20:10:10;230.40;2252.80
70151;DHT22;57517;43.562;19.540;2023-04-01T20:12:54;205.50;2252.80
70151;DHT22;57517;43.562;19.540;2023-04-01T20:15:34;205.50;2252.80
70151;DHT22;57517;43.562;19.540;2023-04-01T20:18:05;230.40;2252.80
70151;DHT22;57517;43.562;19.540;2023-04-01T20:20:38;230.40;2252.80
70151;DHT22;57517;43.562;19.540;2023-04-01T20:25:58;230.40;2252.80
70151;DHT22;57517;43.562;19.540;2023-04-01T20:36:51;230.80;2252.80
70151;DHT22;57517;43.562;19.540;2023-04-01T20:45:37;230.80;2252.80
70151;DHT22;57517;43.562;19.540;2023-04-01T20:56:28;205.70;2252.80
70151;DHT22;57517;43.562;19.540;2023-04-01T21:23:54;205.50;2252.80
70151;DHT22;57517;43.562;19.540;2023-04-01T21:34:48;205.50;2252.80
70151;DHT22;57517;43.562;19.540;2023-04-01T21:43:04;205.30;2252.80
70151;DHT22;57517;43.562;19.540;2023-04-01T22:00:24;180.10;2252.80
70151;DHT22;57517;43.562;19.540;2023-04-01T22:09:07;180.10;2252.80
70151;DHT22;57517;43.562;19.540;2023-04-01T22:14:37;180.10;2252.80
70151;DHT22;57517;43.562;19.540;2023-04-01T22:17:31;180.10;2252.80
70151;DHT22;57517;43.562;19.540;2023-04-01T22:28:10;179.70;2252.80
70151;DHT22;57517;43.562;19.540;2023-04-01T22:30:44;179.50;2252.80
70151;DHT22;57517;43.562;19.540;2023-04-01T22:33:38;179.60;2252.80
70151;DHT22;57517;43.562;19.540;2023-04-01T22:44:24;179.60;2252.80
70151;DHT22;57517;43.562;19.540;2023-04-01T22:50:10;179.40;2252.80
70151;DHT22;57517;43.562;19.540;2023-04-01T22:52:43;179.50;2252.80
70151;DHT22;57517;43.562;19.540;2023-04-01T22:55:27;179.40;2252.80
70151;DHT22;57517;43.562;19.540;2023-04-01T22:57:59;179.50;2252.80
70151;DHT22;57517;43.562;19.540;2023-04-01T23:01:19;179.20;2252.80
70151;DHT22;57517;43.562;19.540;2023-04-01T23:03:40;154.40;2252.80
70151;DHT22;57517;43.562;19.540;2023-04-01T23:06:08;179.30;2252.80
70151;DHT22;57517;43.562;19.540;2023-04-01T23:08:44;179.40;2252.80
70151;DHT22;57517;43.562;19.540;2023-04-01T23:11:23;179.50;2252.80
70151;DHT22;57517;43.562;19.540;2023-04-01T23:16:37;179.80;2252.80
70151;DHT22;57517;43.562;19.540;2023-04-01T23:19:41;179.50;2252.80
70151;DHT22;57517;43.562;19.540;2023-04-01T23:22:15;179.20;2252.80
70151;DHT22;57517;43.562;19.540;2023-04-01T23:24:52;154.50;2252.80
70151;DHT22;57517;43.562;19.540;2023-04-01T23:27:33;154.40;2252.80
70151;DHT22;57517;43.562;19.540;2023-04-01T23:30:03;154.30;2252.80
70151;DHT22;57517;43.562;19.540;2023-04-01T23:32:29;154.50;2252.80
70151;DHT22;57517;43.562;19.540;2023-04-01T23:34:57;154.40;2252.80
70151;DHT22;57517;43.562;19.540;2023-04-01T23:37:24;154.50;2252.80
70151;DHT22;57517;43.562;19.540;2023-04-01T23:39:53;179.20;2252.80
70151;DHT22;57517;43.562;19.540;2023-04-01T23:42:31;179.30;2252.80
70151;DHT22;57517;43.562;19.540;2023-04-01T23:45:24;179.20;2252.80
70151;DHT22;57517;43.562;19.540;2023-04-01T23:47:51;179.20;2252.80
70151;DHT22;57517;43.562;19.540;2023-04-01T23:50:20;179.20;2252.80
70151;DHT22;57517;43.562;19.540;2023-04-01T23:52:51;154.30;2252.80
70151;DHT22;57517;43.562;19.540;2023-04-01T23:55:22;154.10;2252.80
